Pagrindinis puslapis
METAR-TAF:

METAR-TAF

Oro uostai :

Vladikaukazas, Rusija

platuma: 43-12-18N, ilguma: 044-36-24E, Aukštis: 510 m

Dabartinis oras

Ataskaita buvo paskelbta 11 minutes, ne 09:00 UTC
Vėjas 12 kt iš Rytų/Šiaurės Rytų, svyruoja nuo Šiaurės/Šiaurės Rytų ir Rytų
Temperatūra 25°C
Drėgmė 41%
Slėgis 1015 hPa
Matomumas 10 km arba daugiau

METAR: URMO 250900Z 07006MPS 030V090 9999 NSC 25/11 Q1015 R09/010070 NOSIG RMK QFE717/0956

Laikas: 12:11 (09:11 UTC)

Prognozė

Ataskaita buvo paskelbta 1 valandą ir 11 minutes, ne 08:00 UTC
Prognozė galioja nuo 25 metu 09 UTC su 25 metu 18 UTC
Vėjas 6 kt iš Rytų/Šiaurės Rytų su gūsio iki 16 kt
Matomumas 10 km arba daugiau
Su prošvaistėmis ne aukštis 5500 ft
Laikinai
nuo 25 metu 09 UTC su 25 metu 15 UTC
Vėjas 12 kt iš Rytų su gūsio iki 25 kt

TAF: URMO 250800Z 2509/2518 07003G08MPS 9999 BKN055 TEMPO 2509/2515 10006G13MPS

Orai ataskaitas ir orų prognozės (METAR, TAF).

turimą stotys yra geltonos ir raudonos taškus žemėlapyje.

Perkelti pele per norėdami pamatyti stoties vardą.

Tada spustelėkite, norėdami matyti oro stebėjimo ir prognozės.

Norėdami pakeisti žemėlapį: spustelėkite ant žalios mygtukų su juodo kryžiaus žemyn,; žalią mygtuką su brūkšneliu, jei norite nutolinti; arba žalių rodyklių gretimoms žemėlapius.


METAR-TAF: